createdAt,value
2023-04-27T00:00:50.456Z,6.50
2023-04-27T00:03:17.876Z,5.80
2023-04-27T00:05:44.967Z,6.40
2023-04-27T00:08:11.850Z,5.30
2023-04-27T00:10:38.615Z,5.10
2023-04-27T00:13:06.210Z,5.70
2023-04-27T00:15:33.050Z,4.90
2023-04-27T00:17:59.921Z,4.60
2023-04-27T00:20:26.841Z,5.00
2023-04-27T00:22:53.675Z,5.10
2023-04-27T00:25:20.615Z,5.70
2023-04-27T00:27:49.912Z,6.10
2023-04-27T00:30:16.872Z,5.40
2023-04-27T00:32:43.731Z,5.40
2023-04-27T00:35:11.011Z,6.30
2023-04-27T00:37:37.810Z,4.50
2023-04-27T00:40:06.773Z,6.00
2023-04-27T00:42:34.210Z,5.80
2023-04-27T00:45:01.453Z,5.00
2023-04-27T00:47:28.902Z,4.90
2023-04-27T00:49:56.783Z,4.70
2023-04-27T00:52:25.923Z,6.20
2023-04-27T00:54:52.993Z,5.30
2023-04-27T00:57:20.930Z,6.10
2023-04-27T00:59:47.736Z,5.50
2023-04-27T01:02:14.761Z,5.50
2023-04-27T01:04:41.772Z,6.50
2023-04-27T01:07:08.622Z,5.50
2023-04-27T01:09:35.344Z,5.70
2023-04-27T01:12:03.371Z,6.40
2023-04-27T01:14:30.306Z,4.60
2023-04-27T01:16:57.036Z,4.40
2023-04-27T01:19:23.881Z,4.90
2023-04-27T01:21:50.810Z,4.50
2023-04-27T01:24:17.548Z,4.40
2023-04-27T01:26:44.363Z,6.10
2023-04-27T01:29:11.429Z,4.20
2023-04-27T01:31:38.957Z,5.30
2023-04-27T01:34:06.169Z,6.30
2023-04-27T01:36:32.957Z,5.60
2023-04-27T01:38:59.809Z,5.80
2023-04-27T01:41:26.781Z,4.60
2023-04-27T01:43:53.580Z,7.60
2023-04-27T01:46:21.688Z,4.10
2023-04-27T01:48:50.589Z,6.10
2023-04-27T01:51:17.387Z,6.70
2023-04-27T01:53:44.718Z,4.70
2023-04-27T01:56:11.566Z,5.30
2023-04-27T01:58:38.408Z,5.20
2023-04-27T02:01:05.271Z,8.30
2023-04-27T02:03:32.281Z,5.60
2023-04-27T02:05:59.284Z,5.00
2023-04-27T02:08:26.013Z,7.10
2023-04-27T02:10:52.868Z,5.30
2023-04-27T02:13:19.684Z,6.10
2023-04-27T02:15:46.451Z,4.50
2023-04-27T02:18:15.731Z,6.30
2023-04-27T02:20:42.522Z,7.30
2023-04-27T02:23:09.302Z,5.00
2023-04-27T02:25:42.917Z,6.10
2023-04-27T02:28:09.706Z,6.60
2023-04-27T02:30:37.837Z,6.60
2023-04-27T02:33:05.193Z,6.80
2023-04-27T02:35:33.336Z,5.10
2023-04-27T02:38:00.101Z,5.50
2023-04-27T02:40:26.870Z,5.20
2023-04-27T02:42:53.704Z,6.80
2023-04-27T02:45:20.480Z,5.40
2023-04-27T02:47:47.277Z,6.10
2023-04-27T02:50:14.073Z,5.50
2023-04-27T02:52:41.030Z,4.30
2023-04-27T02:55:08.095Z,4.00
2023-04-27T02:57:34.972Z,6.10
2023-04-27T03:00:03.348Z,6.10
2023-04-27T03:02:30.896Z,7.00
2023-04-27T03:04:59.319Z,5.10
2023-04-27T03:07:26.745Z,7.90
2023-04-27T03:09:53.548Z,7.10
2023-04-27T03:12:21.813Z,7.00
2023-04-27T03:14:48.616Z,5.60
2023-04-27T03:17:15.513Z,6.10
2023-04-27T03:19:42.257Z,4.60
2023-04-27T03:22:09.010Z,5.80
2023-04-27T03:24:35.809Z,6.80
2023-04-27T03:27:02.546Z,6.20
2023-04-27T03:29:29.358Z,7.60
2023-04-27T03:31:56.221Z,7.40
2023-04-27T03:34:23.593Z,6.20
2023-04-27T03:36:50.990Z,7.90
2023-04-27T03:39:17.779Z,7.00
2023-04-27T03:41:45.033Z,7.80
2023-04-27T03:44:12.033Z,7.10
2023-04-27T03:46:38.879Z,7.20
2023-04-27T03:49:05.851Z,6.10
2023-04-27T03:51:33.481Z,6.50
2023-04-27T03:54:00.392Z,6.30
2023-04-27T03:56:27.561Z,4.50
2023-04-27T03:58:55.422Z,5.30
2023-04-27T04:01:29.085Z,8.90
2023-04-27T04:03:56.037Z,7.50
2023-04-27T04:06:23.043Z,5.60
2023-04-27T04:08:49.842Z,11.20
2023-04-27T04:11:17.126Z,5.00
2023-04-27T04:13:44.383Z,8.90
2023-04-27T04:16:11.272Z,6.10
2023-04-27T04:18:39.292Z,7.40
2023-04-27T04:21:06.469Z,8.10
2023-04-27T04:23:33.261Z,5.70
2023-04-27T04:26:00.197Z,5.70
2023-04-27T04:28:30.832Z,7.40
2023-04-27T04:30:57.779Z,7.10
2023-04-27T04:33:26.299Z,11.70
2023-04-27T04:35:53.768Z,9.90
2023-04-27T04:38:21.816Z,5.50
2023-04-27T04:40:48.755Z,7.80
2023-04-27T04:43:15.559Z,8.10
2023-04-27T04:45:42.856Z,8.40
2023-04-27T04:48:10.421Z,5.00
2023-04-27T04:50:37.300Z,6.40
2023-04-27T04:53:04.123Z,7.30
2023-04-27T04:55:33.002Z,5.10
2023-04-27T04:58:00.316Z,7.20
2023-04-27T05:00:28.053Z,7.40
2023-04-27T05:02:54.932Z,6.20
2023-04-27T05:05:21.815Z,5.90
2023-04-27T05:07:48.577Z,6.50
2023-04-27T05:10:15.352Z,6.20
2023-04-27T05:12:44.409Z,5.90
2023-04-27T05:15:11.477Z,7.90
2023-04-27T05:17:38.548Z,6.20
2023-04-27T05:20:06.031Z,5.30
2023-04-27T05:22:32.909Z,6.30
2023-04-27T05:24:59.841Z,7.80
2023-04-27T05:27:26.620Z,6.20
2023-04-27T05:29:53.409Z,7.40
2023-04-27T05:32:20.152Z,6.30
2023-04-27T05:34:49.307Z,6.80
2023-04-27T05:37:16.465Z,7.50
2023-04-27T05:39:43.212Z,6.20
2023-04-27T05:42:10.029Z,7.40
2023-04-27T05:44:36.856Z,8.50
2023-04-27T05:47:03.677Z,5.70
2023-04-27T05:49:30.411Z,6.40
2023-04-27T05:51:59.145Z,8.50
2023-04-27T05:54:27.654Z,9.20
2023-04-27T05:56:54.491Z,6.90
2023-04-27T05:59:22.023Z,7.00
2023-04-27T06:01:48.871Z,7.70
2023-04-27T06:04:15.902Z,7.60
2023-04-27T06:06:42.824Z,9.40
2023-04-27T06:09:09.650Z,10.40
2023-04-27T06:11:37.657Z,7.20
2023-04-27T06:14:04.517Z,7.90
2023-04-27T06:16:31.425Z,8.00
2023-04-27T06:18:58.429Z,8.90
2023-04-27T06:21:25.234Z,7.50
2023-04-27T06:23:51.975Z,7.40
2023-04-27T06:26:18.955Z,9.00
2023-04-27T06:28:45.881Z,7.10
2023-04-27T06:31:12.790Z,7.10
2023-04-27T06:33:39.606Z,5.40
2023-04-27T06:36:06.548Z,6.50
2023-04-27T06:38:33.436Z,6.50
2023-04-27T06:41:00.229Z,7.10
2023-04-27T06:43:27.175Z,6.50
2023-04-27T06:46:05.336Z,6.70
2023-04-27T06:48:32.180Z,5.30
2023-04-27T06:50:59.558Z,5.40
2023-04-27T06:53:26.417Z,5.50
2023-04-27T06:55:53.970Z,6.30
2023-04-27T06:58:21.306Z,5.20
2023-04-27T07:00:48.125Z,6.80
2023-04-27T07:03:15.320Z,6.00
2023-04-27T07:05:42.430Z,6.00
2023-04-27T07:08:09.411Z,5.10
2023-04-27T07:10:36.543Z,6.00
2023-04-27T07:13:03.351Z,6.30
2023-04-27T07:15:33.081Z,5.70
2023-04-27T07:17:59.936Z,7.80
2023-04-27T07:20:27.158Z,6.50
2023-04-27T07:22:53.931Z,5.70
2023-04-27T07:25:21.064Z,5.30
2023-04-27T07:27:48.110Z,5.10
2023-04-27T07:30:15.816Z,5.20
2023-04-27T07:32:42.870Z,6.00
2023-04-27T07:35:10.100Z,6.00
2023-04-27T07:37:40.463Z,6.70
2023-04-27T07:40:14.638Z,5.60
2023-04-27T07:42:42.251Z,78.60
2023-04-27T07:45:09.690Z,49.00
2023-04-27T07:47:37.291Z,9.90
2023-04-27T07:50:04.824Z,13.70
2023-04-27T07:52:31.671Z,8.40
2023-04-27T07:54:58.479Z,6.10
2023-04-27T07:57:25.392Z,7.70
2023-04-27T07:59:52.235Z,7.10
2023-04-27T08:02:20.357Z,7.80
2023-04-27T08:04:48.219Z,4.50
2023-04-27T08:07:19.515Z,4.80
2023-04-27T08:09:46.985Z,6.20
2023-04-27T08:12:13.832Z,5.90
2023-04-27T08:14:40.615Z,5.50
2023-04-27T08:17:07.765Z,4.80
2023-04-27T08:19:34.897Z,5.80
2023-04-27T08:22:01.626Z,4.80
2023-04-27T08:24:28.655Z,5.40
2023-04-27T08:26:55.695Z,4.50
2023-04-27T08:29:27.940Z,4.80
2023-04-27T08:31:58.568Z,4.00
2023-04-27T08:34:26.120Z,3.00
2023-04-27T08:36:54.155Z,5.60
2023-04-27T08:39:21.131Z,5.80
2023-04-27T08:41:48.011Z,5.50
2023-04-27T08:44:14.971Z,3.60
2023-04-27T08:46:41.930Z,5.50
2023-04-27T08:49:09.987Z,5.30
2023-04-27T08:51:37.024Z,5.50
2023-04-27T08:54:03.892Z,4.20
2023-04-27T08:56:31.028Z,3.90
2023-04-27T08:58:58.480Z,4.90
2023-04-27T09:01:26.447Z,3.90
2023-04-27T09:04:00.142Z,5.60
2023-04-27T09:06:32.103Z,5.20
2023-04-27T09:08:59.791Z,4.50
2023-04-27T09:11:37.177Z,5.60
2023-04-27T09:14:20.797Z,5.20
2023-04-27T09:16:55.848Z,4.20
2023-04-27T09:19:26.465Z,5.90
2023-04-27T09:22:03.593Z,5.10
2023-04-27T09:24:30.943Z,4.80
2023-04-27T09:26:59.047Z,5.90
2023-04-27T09:29:34.947Z,4.30
2023-04-27T09:32:01.799Z,5.70
2023-04-27T09:34:38.114Z,3.40
2023-04-27T09:37:05.755Z,4.70
2023-04-27T09:39:32.923Z,4.80
2023-04-27T09:42:01.029Z,5.20
2023-04-27T09:44:28.919Z,3.50
2023-04-27T09:46:58.196Z,6.10
2023-04-27T09:49:25.744Z,5.70
2023-04-27T09:51:54.542Z,5.10
2023-04-27T09:54:22.929Z,4.80
2023-04-27T09:56:49.693Z,4.60
2023-04-27T09:59:25.687Z,3.90
2023-04-27T10:01:55.927Z,4.90
2023-04-27T10:04:32.062Z,5.90
2023-04-27T10:07:04.057Z,5.60
2023-04-27T10:09:40.410Z,5.20
2023-04-27T10:12:33.549Z,6.00
2023-04-27T10:15:01.168Z,8.20
2023-04-27T10:17:32.330Z,6.90
2023-04-27T10:20:00.758Z,5.20
2023-04-27T10:22:39.053Z,5.40
2023-04-27T10:25:22.701Z,6.40
2023-04-27T10:27:53.891Z,5.60
2023-04-27T10:30:22.707Z,6.00
2023-04-27T10:32:53.878Z,4.40
2023-04-27T10:35:24.048Z,9.70
2023-04-27T10:37:52.429Z,4.80
2023-04-27T10:40:19.734Z,6.60
2023-04-27T10:42:49.739Z,4.50
2023-04-27T10:45:29.235Z,8.90
2023-04-27T10:47:59.955Z,7.10
2023-04-27T10:50:27.702Z,4.50
2023-04-27T10:52:54.530Z,5.50
2023-04-27T10:55:22.248Z,4.70
2023-04-27T10:57:50.356Z,6.00
2023-04-27T11:00:23.779Z,4.10
2023-04-27T11:02:51.958Z,8.10
2023-04-27T11:05:19.823Z,3.30
2023-04-27T11:07:48.394Z,3.90
2023-04-27T11:10:16.272Z,4.90
2023-04-27T11:12:43.135Z,4.50
2023-04-27T11:15:10.413Z,6.80
2023-04-27T11:17:37.414Z,7.60
2023-04-27T11:20:08.986Z,4.10
2023-04-27T11:22:44.183Z,4.50
2023-04-27T11:25:11.413Z,5.60
2023-04-27T11:27:39.308Z,3.90
2023-04-27T11:30:07.765Z,4.00
2023-04-27T11:32:34.575Z,3.60
2023-04-27T11:35:01.880Z,4.30
2023-04-27T11:37:28.774Z,4.50
2023-04-27T11:40:00.170Z,3.70
2023-04-27T11:42:31.828Z,4.40
2023-04-27T11:44:59.896Z,8.40
2023-04-27T11:47:28.253Z,3.20
2023-04-27T11:49:56.176Z,3.80
2023-04-27T11:52:23.430Z,5.60
2023-04-27T11:54:54.083Z,5.10
2023-04-27T11:57:28.860Z,4.30
2023-04-27T11:59:56.296Z,5.60
2023-04-27T12:02:23.608Z,5.30
2023-04-27T12:04:51.096Z,5.10
2023-04-27T12:07:18.650Z,5.90
2023-04-27T12:09:45.475Z,6.00
2023-04-27T12:12:18.434Z,6.30
2023-04-27T12:14:46.151Z,4.80
2023-04-27T12:17:13.394Z,3.60
2023-04-27T12:19:40.679Z,5.30
2023-04-27T12:22:08.798Z,5.40
2023-04-27T12:24:36.581Z,3.20
2023-04-27T12:27:04.566Z,3.80
2023-04-27T12:29:34.448Z,5.00
2023-04-27T12:32:01.336Z,4.50
2023-04-27T12:34:30.564Z,3.50
2023-04-27T12:36:57.674Z,6.80
2023-04-27T12:39:28.238Z,3.80
2023-04-27T12:41:58.047Z,8.40
2023-04-27T12:44:26.091Z,5.10
2023-04-27T12:46:54.541Z,5.50
2023-04-27T12:49:23.477Z,5.70
2023-04-27T12:51:52.291Z,4.90
2023-04-27T12:54:20.101Z,4.30
2023-04-27T12:56:48.195Z,4.30
2023-04-27T12:59:17.518Z,4.20
2023-04-27T13:01:45.979Z,4.70
2023-04-27T13:04:19.092Z,4.90
2023-04-27T13:06:47.132Z,3.40
2023-04-27T13:09:14.024Z,4.10
2023-04-27T13:11:40.868Z,7.40
2023-04-27T13:14:07.758Z,3.20
2023-04-27T13:16:34.596Z,3.20
2023-04-27T13:19:01.454Z,4.70
2023-04-27T13:21:29.800Z,3.60
2023-04-27T13:24:00.080Z,4.90
2023-04-27T13:26:27.347Z,4.20
2023-04-27T13:28:54.201Z,6.20
2023-04-27T13:31:21.056Z,5.40
2023-04-27T13:33:47.933Z,3.70
2023-04-27T13:36:14.755Z,4.60
2023-04-27T13:38:41.801Z,6.90
2023-04-27T13:41:09.002Z,4.90
2023-04-27T13:43:35.928Z,5.00
2023-04-27T13:46:03.268Z,4.50
2023-04-27T13:48:30.633Z,5.10
2023-04-27T13:50:58.154Z,3.70
2023-04-27T13:53:26.057Z,4.80
2023-04-27T13:55:57.091Z,5.60
2023-04-27T13:58:26.093Z,7.80
2023-04-27T14:00:53.685Z,4.80
2023-04-27T14:03:21.816Z,37.00
2023-04-27T14:05:51.285Z,27.30
2023-04-27T14:08:18.816Z,12.00
2023-04-27T14:10:46.137Z,4.40
2023-04-27T14:13:12.966Z,4.20
2023-04-27T14:15:40.182Z,3.30
2023-04-27T14:18:08.012Z,5.20
2023-04-27T14:20:38.308Z,3.60
2023-04-27T14:23:06.040Z,4.50
2023-04-27T14:25:34.995Z,4.00
2023-04-27T14:28:02.848Z,5.20
2023-04-27T14:30:29.697Z,5.60
2023-04-27T14:32:56.573Z,6.10
2023-04-27T14:35:23.963Z,5.60
2023-04-27T14:37:51.628Z,3.60
2023-04-27T14:40:18.813Z,4.30
2023-04-27T14:42:45.745Z,3.20
2023-04-27T14:45:12.682Z,4.60
2023-04-27T14:47:39.530Z,3.30
2023-04-27T14:50:06.804Z,4.30
2023-04-27T14:52:33.561Z,5.40
2023-04-27T14:55:00.973Z,5.00
2023-04-27T14:57:27.839Z,4.00
2023-04-27T14:59:54.637Z,3.80
2023-04-27T15:02:21.436Z,6.40
2023-04-27T15:04:48.389Z,5.00
2023-04-27T15:07:15.590Z,3.60
2023-04-27T15:09:42.395Z,5.20
2023-04-27T15:12:10.262Z,5.80
2023-04-27T15:14:37.000Z,3.70
2023-04-27T15:17:03.841Z,4.60
2023-04-27T15:19:30.679Z,3.90
2023-04-27T15:21:57.505Z,4.90
2023-04-27T15:24:24.330Z,3.70
2023-04-27T15:26:51.232Z,4.30
2023-04-27T15:29:18.044Z,3.20
2023-04-27T15:31:47.138Z,3.20
2023-04-27T15:34:14.203Z,4.30
2023-04-27T15:36:41.332Z,4.20
2023-04-27T15:39:09.987Z,5.50
2023-04-27T15:41:37.295Z,5.10
2023-04-27T15:44:04.893Z,4.20
2023-04-27T15:46:31.674Z,4.60
2023-04-27T15:48:58.520Z,3.70
2023-04-27T15:51:25.317Z,5.50
2023-04-27T15:53:52.180Z,6.20
2023-04-27T15:56:19.004Z,3.50
2023-04-27T15:58:46.416Z,3.10
2023-04-27T16:01:13.527Z,3.70
2023-04-27T16:03:40.579Z,3.50
2023-04-27T16:06:07.731Z,3.90
2023-04-27T16:08:34.646Z,3.40
2023-04-27T16:11:01.394Z,3.10
2023-04-27T16:13:28.740Z,4.10
2023-04-27T16:15:55.578Z,3.70
2023-04-27T16:18:22.335Z,3.20
2023-04-27T16:20:49.121Z,4.00
2023-04-27T16:23:16.520Z,3.70
2023-04-27T16:25:43.341Z,5.20
2023-04-27T16:28:10.083Z,4.10
2023-04-27T16:30:37.781Z,3.10
2023-04-27T16:33:04.870Z,4.80
2023-04-27T16:35:33.781Z,3.10
2023-04-27T16:38:00.645Z,3.30
2023-04-27T16:40:27.400Z,4.20
2023-04-27T16:42:54.193Z,13.40
2023-04-27T16:45:21.173Z,10.40
2023-04-27T16:47:48.053Z,5.00
2023-04-27T16:50:14.915Z,3.80
2023-04-27T16:52:41.913Z,8.80
2023-04-27T16:55:09.327Z,5.50
2023-04-27T16:57:36.409Z,3.30
2023-04-27T17:00:06.302Z,3.80
2023-04-27T17:02:33.190Z,4.70
2023-04-27T17:05:00.860Z,3.80
2023-04-27T17:07:33.090Z,4.00
2023-04-27T17:10:00.160Z,3.00
2023-04-27T17:12:27.293Z,7.00
2023-04-27T17:14:54.103Z,3.30
2023-04-27T17:17:21.382Z,4.30
2023-04-27T17:19:48.217Z,4.20
2023-04-27T17:22:15.134Z,13.30
2023-04-27T17:24:41.927Z,5.40
2023-04-27T17:27:08.755Z,4.70
2023-04-27T17:29:36.015Z,7.10
2023-04-27T17:32:03.195Z,5.50
2023-04-27T17:34:30.307Z,4.80
2023-04-27T17:36:57.356Z,4.40
2023-04-27T17:39:25.637Z,4.10
2023-04-27T17:41:52.706Z,5.10
2023-04-27T17:44:19.460Z,5.60
2023-04-27T17:46:47.249Z,4.80
2023-04-27T17:49:15.392Z,4.80
2023-04-27T17:51:43.458Z,7.10
2023-04-27T17:54:11.812Z,5.60
2023-04-27T17:56:39.310Z,6.70
2023-04-27T17:59:07.783Z,6.60
2023-04-27T18:01:34.742Z,7.90
2023-04-27T18:04:04.164Z,7.90
2023-04-27T18:06:32.180Z,5.40
2023-04-27T18:08:59.012Z,6.70
2023-04-27T18:11:25.888Z,7.10
2023-04-27T18:13:54.078Z,9.10
2023-04-27T18:19:05.020Z,5.10
2023-04-27T18:21:31.928Z,7.20
2023-04-27T18:23:58.695Z,6.90
2023-04-27T18:26:25.661Z,6.30
2023-04-27T18:28:52.476Z,10.20
2023-04-27T18:31:19.375Z,7.50
2023-04-27T18:33:46.756Z,8.20
2023-04-27T18:36:14.805Z,6.60
2023-04-27T18:38:41.647Z,9.70
2023-04-27T18:41:09.029Z,7.00
2023-04-27T18:43:36.795Z,7.90
2023-04-27T18:46:04.570Z,9.10
2023-04-27T18:48:32.465Z,9.80
2023-04-27T18:50:59.487Z,9.50
2023-04-27T18:53:27.086Z,7.40
2023-04-27T18:55:54.135Z,8.50
2023-04-27T18:58:20.994Z,8.40
2023-04-27T19:00:51.127Z,18.70
2023-04-27T19:03:21.983Z,11.60
2023-04-27T19:05:51.971Z,9.30
2023-04-27T19:08:19.293Z,9.60
2023-04-27T19:10:46.976Z,11.50
2023-04-27T19:13:14.159Z,6.70
2023-04-27T19:15:41.051Z,7.10
2023-04-27T19:18:11.481Z,6.20
2023-04-27T19:20:40.237Z,7.00
2023-04-27T19:23:09.697Z,6.40
2023-04-27T19:25:37.182Z,7.00
2023-04-27T19:28:05.483Z,6.80
2023-04-27T19:30:32.424Z,4.90
2023-04-27T19:32:59.423Z,7.70
2023-04-27T19:35:28.086Z,9.50
2023-04-27T19:37:55.103Z,8.70
2023-04-27T19:40:22.153Z,11.30
2023-04-27T19:42:50.188Z,11.00
2023-04-27T19:45:18.377Z,9.00
2023-04-27T19:47:46.204Z,10.80
2023-04-27T19:50:13.544Z,9.30
2023-04-27T19:52:42.675Z,10.80
2023-04-27T19:55:10.533Z,10.70
2023-04-27T19:57:37.566Z,10.90
2023-04-27T20:00:10.632Z,10.00
2023-04-27T20:02:40.347Z,10.80
2023-04-27T20:05:08.409Z,11.60
2023-04-27T20:07:35.574Z,13.10
2023-04-27T20:10:03.276Z,11.20
2023-04-27T20:12:47.980Z,9.60
2023-04-27T20:15:17.028Z,8.20
2023-04-27T20:17:43.892Z,11.50
2023-04-27T20:20:11.861Z,11.70
2023-04-27T20:22:39.175Z,13.10
2023-04-27T20:25:07.901Z,13.20
2023-04-27T20:27:35.638Z,14.90
2023-04-27T20:30:02.573Z,23.30
2023-04-27T20:32:29.387Z,16.30
2023-04-27T20:34:56.140Z,11.80
2023-04-27T20:37:23.744Z,11.90
2023-04-27T20:39:52.216Z,9.70
2023-04-27T20:42:19.250Z,12.80
2023-04-27T20:44:49.159Z,9.40
2023-04-27T20:47:16.280Z,12.20
2023-04-27T20:49:43.333Z,11.20
2023-04-27T20:52:10.250Z,12.60
2023-04-27T20:54:37.137Z,9.90
2023-04-27T20:57:08.698Z,8.20
2023-04-27T20:59:35.454Z,10.80
2023-04-27T21:02:02.392Z,17.20
2023-04-27T21:04:29.342Z,11.90
2023-04-27T21:06:56.702Z,17.80
2023-04-27T21:09:23.452Z,13.20
2023-04-27T21:11:50.579Z,16.80
2023-04-27T21:14:17.584Z,14.60
2023-04-27T21:16:44.592Z,14.80
2023-04-27T21:19:15.044Z,13.70
2023-04-27T21:21:42.066Z,16.90
2023-04-27T21:24:09.338Z,13.10
2023-04-27T21:26:36.599Z,14.00
2023-04-27T21:29:06.091Z,13.10
2023-04-27T21:31:33.552Z,14.70
2023-04-27T21:34:01.212Z,13.40
2023-04-27T21:36:28.116Z,10.60
2023-04-27T21:38:55.113Z,13.30
2023-04-27T21:41:21.954Z,10.90
2023-04-27T21:43:48.797Z,15.30
2023-04-27T21:46:15.610Z,15.30
2023-04-27T21:48:42.405Z,17.80
2023-04-27T21:51:09.719Z,14.50
2023-04-27T21:53:36.506Z,20.90
2023-04-27T21:56:03.417Z,21.40
2023-04-27T21:58:30.252Z,24.30
2023-04-27T22:00:57.034Z,24.50
2023-04-27T22:03:24.109Z,18.80
2023-04-27T22:05:52.901Z,15.30
2023-04-27T22:08:19.923Z,17.80
2023-04-27T22:10:47.353Z,16.50
2023-04-27T22:15:43.980Z,15.00
2023-04-27T22:18:10.738Z,23.20
2023-04-27T22:20:37.540Z,13.50
2023-04-27T22:23:04.372Z,12.60
2023-04-27T22:25:31.552Z,17.30
2023-04-27T22:27:58.343Z,12.30
2023-04-27T22:30:25.510Z,12.60
2023-04-27T22:32:52.411Z,12.60
2023-04-27T22:35:26.516Z,13.90
2023-04-27T22:37:57.912Z,16.70
2023-04-27T22:40:24.895Z,13.20
2023-04-27T22:42:51.989Z,14.30
2023-04-27T22:45:18.739Z,12.90
2023-04-27T22:47:46.213Z,12.70
2023-04-27T22:50:13.304Z,13.60
2023-04-27T22:52:42.578Z,12.10
2023-04-27T22:55:10.237Z,14.70
2023-04-27T22:57:37.497Z,15.60
2023-04-27T23:00:09.149Z,11.20
2023-04-27T23:02:36.217Z,10.70
2023-04-27T23:05:04.032Z,13.00
2023-04-27T23:07:30.768Z,13.00
2023-04-27T23:09:57.613Z,14.00
2023-04-27T23:12:27.029Z,12.20
2023-04-27T23:14:53.760Z,14.30
2023-04-27T23:17:22.897Z,13.10
2023-04-27T23:19:49.791Z,15.60
2023-04-27T23:22:16.666Z,15.10
2023-04-27T23:24:43.512Z,13.40
2023-04-27T23:27:10.714Z,15.70
2023-04-27T23:29:37.561Z,15.60
2023-04-27T23:32:07.697Z,13.40
2023-04-27T23:34:34.527Z,10.90
2023-04-27T23:37:01.568Z,13.30
2023-04-27T23:39:28.771Z,12.40
2023-04-27T23:41:55.599Z,13.60
2023-04-27T23:44:22.375Z,13.70
2023-04-27T23:46:49.234Z,15.60
2023-04-27T23:49:16.036Z,15.30
2023-04-27T23:51:42.782Z,14.50
2023-04-27T23:54:09.584Z,12.60
2023-04-27T23:56:36.985Z,11.60
2023-04-27T23:59:03.716Z,14.10
